sensor_id;sensor_type;location;lat;lon;timestamp;temperature;humidity
23439;DHT22;11892;48.838;9.330;2022-07-23T00:02:15;25.50;1.00
23439;DHT22;11892;48.838;9.330;2022-07-23T00:04:42;25.50;1.00
23439;DHT22;11892;48.838;9.330;2022-07-23T00:07:08;25.50;1.00
23439;DHT22;11892;48.838;9.330;2022-07-23T00:09:34;25.60;1.00
23439;DHT22;11892;48.838;9.330;2022-07-23T00:12:00;25.50;1.00
23439;DHT22;11892;48.838;9.330;2022-07-23T00:14:26;25.50;1.00
23439;DHT22;11892;48.838;9.330;2022-07-23T00:16:54;25.50;1.00
23439;DHT22;11892;48.838;9.330;2022-07-23T00:19:20;25.50;1.00
23439;DHT22;11892;48.838;9.330;2022-07-23T00:21:47;25.40;1.00
23439;DHT22;11892;48.838;9.330;2022-07-23T00:24:13;25.40;1.00
23439;DHT22;11892;48.838;9.330;2022-07-23T00:26:39;25.40;1.00
23439;DHT22;11892;48.838;9.330;2022-07-23T00:29:05;25.30;1.00
23439;DHT22;11892;48.838;9.330;2022-07-23T00:31:31;25.30;1.00
23439;DHT22;11892;48.838;9.330;2022-07-23T00:33:57;25.30;1.00
23439;DHT22;11892;48.838;9.330;2022-07-23T00:36:23;25.30;1.00
23439;DHT22;11892;48.838;9.330;2022-07-23T00:38:50;25.30;1.00
23439;DHT22;11892;48.838;9.330;2022-07-23T00:41:16;25.30;1.00
23439;DHT22;11892;48.838;9.330;2022-07-23T00:43:42;25.30;1.00
23439;DHT22;11892;48.838;9.330;2022-07-23T00:46:11;25.30;1.00
23439;DHT22;11892;48.838;9.330;2022-07-23T00:48:37;25.30;1.00
23439;DHT22;11892;48.838;9.330;2022-07-23T00:51:03;25.30;1.00
23439;DHT22;11892;48.838;9.330;2022-07-23T00:53:29;25.30;1.00
23439;DHT22;11892;48.838;9.330;2022-07-23T00:55:58;25.10;1.00
23439;DHT22;11892;48.838;9.330;2022-07-23T00:58:24;25.00;1.00
23439;DHT22;11892;48.838;9.330;2022-07-23T01:00:53;24.80;1.00
23439;DHT22;11892;48.838;9.330;2022-07-23T01:03:19;24.50;1.00
23439;DHT22;11892;48.838;9.330;2022-07-23T01:05:45;24.60;1.00
23439;DHT22;11892;48.838;9.330;2022-07-23T01:08:11;24.50;1.00
23439;DHT22;11892;48.838;9.330;2022-07-23T01:10:41;24.50;1.00
23439;DHT22;11892;48.838;9.330;2022-07-23T01:13:09;24.40;1.00
23439;DHT22;11892;48.838;9.330;2022-07-23T01:15:37;24.40;1.00
23439;DHT22;11892;48.838;9.330;2022-07-23T01:18:05;24.30;1.00
23439;DHT22;11892;48.838;9.330;2022-07-23T01:20:37;24.30;1.00
23439;DHT22;11892;48.838;9.330;2022-07-23T01:23:05;24.30;1.00
23439;DHT22;11892;48.838;9.330;2022-07-23T01:25:31;24.30;1.00
23439;DHT22;11892;48.838;9.330;2022-07-23T01:28:00;24.30;1.00
23439;DHT22;11892;48.838;9.330;2022-07-23T01:30:26;24.20;1.00
23439;DHT22;11892;48.838;9.330;2022-07-23T01:32:53;24.20;1.00
23439;DHT22;11892;48.838;9.330;2022-07-23T01:35:19;24.20;1.00
23439;DHT22;11892;48.838;9.330;2022-07-23T01:37:46;24.30;1.00
23439;DHT22;11892;48.838;9.330;2022-07-23T01:40:14;24.30;1.00
23439;DHT22;11892;48.838;9.330;2022-07-23T01:42:40;24.30;1.00
23439;DHT22;11892;48.838;9.330;2022-07-23T01:45:08;24.30;1.00
23439;DHT22;11892;48.838;9.330;2022-07-23T01:47:36;24.30;1.00
23439;DHT22;11892;48.838;9.330;2022-07-23T01:50:02;24.30;1.00
23439;DHT22;11892;48.838;9.330;2022-07-23T01:52:39;24.30;1.00
23439;DHT22;11892;48.838;9.330;2022-07-23T01:55:08;24.40;1.00
23439;DHT22;11892;48.838;9.330;2022-07-23T01:57:36;24.40;1.00
23439;DHT22;11892;48.838;9.330;2022-07-23T02:00:02;24.40;1.00
23439;DHT22;11892;48.838;9.330;2022-07-23T02:02:38;24.30;1.00
23439;DHT22;11892;48.838;9.330;2022-07-23T02:05:05;24.40;1.00
23439;DHT22;11892;48.838;9.330;2022-07-23T02:07:32;24.40;1.00
23439;DHT22;11892;48.838;9.330;2022-07-23T02:09:58;24.30;1.00
23439;DHT22;11892;48.838;9.330;2022-07-23T02:12:25;24.30;1.00
23439;DHT22;11892;48.838;9.330;2022-07-23T02:14:52;24.20;1.00
23439;DHT22;11892;48.838;9.330;2022-07-23T02:17:18;24.20;1.00
23439;DHT22;11892;48.838;9.330;2022-07-23T02:19:44;24.10;1.00
23439;DHT22;11892;48.838;9.330;2022-07-23T02:22:10;24.10;1.00
23439;DHT22;11892;48.838;9.330;2022-07-23T02:24:36;24.00;1.00
23439;DHT22;11892;48.838;9.330;2022-07-23T02:27:02;24.00;1.00
23439;DHT22;11892;48.838;9.330;2022-07-23T02:29:28;24.00;1.00
23439;DHT22;11892;48.838;9.330;2022-07-23T02:31:55;24.00;1.00
23439;DHT22;11892;48.838;9.330;2022-07-23T02:34:22;23.90;1.00
23439;DHT22;11892;48.838;9.330;2022-07-23T02:36:48;23.90;1.00
23439;DHT22;11892;48.838;9.330;2022-07-23T02:39:14;23.90;1.00
23439;DHT22;11892;48.838;9.330;2022-07-23T02:41:40;23.90;1.00
23439;DHT22;11892;48.838;9.330;2022-07-23T02:44:07;23.90;1.00
23439;DHT22;11892;48.838;9.330;2022-07-23T02:46:34;23.80;1.00
23439;DHT22;11892;48.838;9.330;2022-07-23T02:49:02;23.80;1.00
23439;DHT22;11892;48.838;9.330;2022-07-23T02:51:30;23.70;1.00
23439;DHT22;11892;48.838;9.330;2022-07-23T02:54:01;23.70;1.00
23439;DHT22;11892;48.838;9.330;2022-07-23T02:56:27;23.60;1.00
23439;DHT22;11892;48.838;9.330;2022-07-23T02:58:53;23.60;1.00
23439;DHT22;11892;48.838;9.330;2022-07-23T03:01:20;23.50;1.00
23439;DHT22;11892;48.838;9.330;2022-07-23T03:03:46;23.50;1.00
23439;DHT22;11892;48.838;9.330;2022-07-23T03:06:13;23.50;1.00
23439;DHT22;11892;48.838;9.330;2022-07-23T03:08:40;23.50;1.00
23439;DHT22;11892;48.838;9.330;2022-07-23T03:11:06;23.40;1.00
23439;DHT22;11892;48.838;9.330;2022-07-23T03:13:38;23.40;1.00
23439;DHT22;11892;48.838;9.330;2022-07-23T03:16:04;23.40;1.00
23439;DHT22;11892;48.838;9.330;2022-07-23T03:18:30;23.40;1.00
23439;DHT22;11892;48.838;9.330;2022-07-23T03:20:59;23.40;1.00
23439;DHT22;11892;48.838;9.330;2022-07-23T03:23:26;23.40;1.00
23439;DHT22;11892;48.838;9.330;2022-07-23T03:25:52;23.30;1.00
23439;DHT22;11892;48.838;9.330;2022-07-23T03:28:19;23.30;1.00
23439;DHT22;11892;48.838;9.330;2022-07-23T03:30:46;23.40;1.00
23439;DHT22;11892;48.838;9.330;2022-07-23T03:33:12;23.30;1.00
23439;DHT22;11892;48.838;9.330;2022-07-23T03:35:39;23.30;1.00
23439;DHT22;11892;48.838;9.330;2022-07-23T03:38:25;23.30;1.00
23439;DHT22;11892;48.838;9.330;2022-07-23T03:40:52;23.30;1.00
23439;DHT22;11892;48.838;9.330;2022-07-23T03:43:18;23.20;1.00
23439;DHT22;11892;48.838;9.330;2022-07-23T03:45:45;23.20;1.00
23439;DHT22;11892;48.838;9.330;2022-07-23T03:48:11;23.20;1.00
23439;DHT22;11892;48.838;9.330;2022-07-23T03:50:37;23.10;1.00
23439;DHT22;11892;48.838;9.330;2022-07-23T03:53:03;23.10;1.00
23439;DHT22;11892;48.838;9.330;2022-07-23T03:55:33;23.10;1.00
23439;DHT22;11892;48.838;9.330;2022-07-23T03:57:59;23.10;1.00
23439;DHT22;11892;48.838;9.330;2022-07-23T04:00:25;23.10;1.00
23439;DHT22;11892;48.838;9.330;2022-07-23T04:02:51;23.00;1.00
23439;DHT22;11892;48.838;9.330;2022-07-23T04:05:17;23.10;1.00
23439;DHT22;11892;48.838;9.330;2022-07-23T04:07:46;23.10;1.00
23439;DHT22;11892;48.838;9.330;2022-07-23T04:10:12;23.10;1.00
23439;DHT22;11892;48.838;9.330;2022-07-23T04:12:41;23.00;1.00
23439;DHT22;11892;48.838;9.330;2022-07-23T04:15:08;23.00;1.00
23439;DHT22;11892;48.838;9.330;2022-07-23T04:17:34;23.00;1.00
23439;DHT22;11892;48.838;9.330;2022-07-23T04:20:01;23.10;1.00
23439;DHT22;11892;48.838;9.330;2022-07-23T04:22:35;23.10;1.00
23439;DHT22;11892;48.838;9.330;2022-07-23T04:25:02;23.20;1.00
23439;DHT22;11892;48.838;9.330;2022-07-23T04:27:28;23.20;1.00
23439;DHT22;11892;48.838;9.330;2022-07-23T04:29:55;23.20;1.00
23439;DHT22;11892;48.838;9.330;2022-07-23T04:32:21;23.20;1.00
23439;DHT22;11892;48.838;9.330;2022-07-23T04:34:47;23.20;1.00
23439;DHT22;11892;48.838;9.330;2022-07-23T04:37:14;23.30;1.00
23439;DHT22;11892;48.838;9.330;2022-07-23T04:39:40;23.20;1.00
23439;DHT22;11892;48.838;9.330;2022-07-23T04:42:06;23.30;1.00
23439;DHT22;11892;48.838;9.330;2022-07-23T04:44:32;23.30;1.00
23439;DHT22;11892;48.838;9.330;2022-07-23T04:46:59;23.30;1.00
23439;DHT22;11892;48.838;9.330;2022-07-23T04:49:25;23.30;1.00
23439;DHT22;11892;48.838;9.330;2022-07-23T04:51:51;23.30;1.00
23439;DHT22;11892;48.838;9.330;2022-07-23T04:54:17;23.30;1.00
23439;DHT22;11892;48.838;9.330;2022-07-23T04:56:43;23.30;1.00
23439;DHT22;11892;48.838;9.330;2022-07-23T04:59:12;23.30;1.00
23439;DHT22;11892;48.838;9.330;2022-07-23T05:01:39;23.40;1.00
23439;DHT22;11892;48.838;9.330;2022-07-23T05:04:06;23.40;1.00
23439;DHT22;11892;48.838;9.330;2022-07-23T05:06:35;23.50;1.00
23439;DHT22;11892;48.838;9.330;2022-07-23T05:09:01;23.60;1.00
23439;DHT22;11892;48.838;9.330;2022-07-23T05:11:29;23.60;1.00
23439;DHT22;11892;48.838;9.330;2022-07-23T05:13:55;23.70;1.00
23439;DHT22;11892;48.838;9.330;2022-07-23T05:16:22;23.70;1.00
23439;DHT22;11892;48.838;9.330;2022-07-23T05:18:49;23.70;1.00
23439;DHT22;11892;48.838;9.330;2022-07-23T05:21:16;23.70;1.00
23439;DHT22;11892;48.838;9.330;2022-07-23T05:23:44;23.70;1.00
23439;DHT22;11892;48.838;9.330;2022-07-23T05:26:10;23.80;1.00
23439;DHT22;11892;48.838;9.330;2022-07-23T05:28:39;23.90;1.00
23439;DHT22;11892;48.838;9.330;2022-07-23T05:31:08;24.00;1.00
23439;DHT22;11892;48.838;9.330;2022-07-23T05:33:34;24.00;1.00
23439;DHT22;11892;48.838;9.330;2022-07-23T05:36:01;24.00;1.00
23439;DHT22;11892;48.838;9.330;2022-07-23T05:38:31;24.00;1.00
23439;DHT22;11892;48.838;9.330;2022-07-23T05:40:59;24.00;1.00
23439;DHT22;11892;48.838;9.330;2022-07-23T05:43:26;24.00;1.00
23439;DHT22;11892;48.838;9.330;2022-07-23T05:45:55;24.00;1.00
23439;DHT22;11892;48.838;9.330;2022-07-23T05:48:21;24.10;1.00
23439;DHT22;11892;48.838;9.330;2022-07-23T05:51:08;24.10;1.00
23439;DHT22;11892;48.838;9.330;2022-07-23T05:53:35;24.30;1.00
23439;DHT22;11892;48.838;9.330;2022-07-23T05:56:06;24.30;1.00
23439;DHT22;11892;48.838;9.330;2022-07-23T05:58:32;24.40;1.00
23439;DHT22;11892;48.838;9.330;2022-07-23T06:00:59;24.50;1.00
23439;DHT22;11892;48.838;9.330;2022-07-23T06:03:29;24.60;1.00
23439;DHT22;11892;48.838;9.330;2022-07-23T06:05:55;24.70;1.00
23439;DHT22;11892;48.838;9.330;2022-07-23T06:08:21;24.80;1.00
23439;DHT22;11892;48.838;9.330;2022-07-23T06:10:49;24.60;1.00
23439;DHT22;11892;48.838;9.330;2022-07-23T06:13:17;24.70;1.00
23439;DHT22;11892;48.838;9.330;2022-07-23T06:15:44;24.70;1.00
23439;DHT22;11892;48.838;9.330;2022-07-23T06:18:10;24.70;1.00
23439;DHT22;11892;48.838;9.330;2022-07-23T06:20:38;24.70;1.00
23439;DHT22;11892;48.838;9.330;2022-07-23T06:23:04;24.50;1.00
23439;DHT22;11892;48.838;9.330;2022-07-23T06:25:30;24.40;1.00
23439;DHT22;11892;48.838;9.330;2022-07-23T06:27:57;24.30;1.00
23439;DHT22;11892;48.838;9.330;2022-07-23T06:30:26;24.30;1.00
23439;DHT22;11892;48.838;9.330;2022-07-23T06:32:52;24.10;1.00
23439;DHT22;11892;48.838;9.330;2022-07-23T06:35:18;24.20;1.00
23439;DHT22;11892;48.838;9.330;2022-07-23T06:37:46;24.30;1.00
23439;DHT22;11892;48.838;9.330;2022-07-23T06:40:12;24.30;1.00
23439;DHT22;11892;48.838;9.330;2022-07-23T06:42:39;24.40;1.00
23439;DHT22;11892;48.838;9.330;2022-07-23T06:45:08;24.30;1.00
23439;DHT22;11892;48.838;9.330;2022-07-23T06:47:36;24.30;1.00
23439;DHT22;11892;48.838;9.330;2022-07-23T06:50:03;24.30;1.00
23439;DHT22;11892;48.838;9.330;2022-07-23T06:52:29;24.30;1.00
23439;DHT22;11892;48.838;9.330;2022-07-23T06:54:55;24.40;1.00
23439;DHT22;11892;48.838;9.330;2022-07-23T06:57:21;24.30;1.00
23439;DHT22;11892;48.838;9.330;2022-07-23T06:59:47;24.40;1.00
23439;DHT22;11892;48.838;9.330;2022-07-23T07:02:14;24.40;1.00
23439;DHT22;11892;48.838;9.330;2022-07-23T07:04:42;24.50;1.00
23439;DHT22;11892;48.838;9.330;2022-07-23T07:07:09;24.40;1.00
23439;DHT22;11892;48.838;9.330;2022-07-23T07:09:35;24.20;1.00
23439;DHT22;11892;48.838;9.330;2022-07-23T07:12:00;24.00;1.00
23439;DHT22;11892;48.838;9.330;2022-07-23T07:14:27;23.60;1.00
23439;DHT22;11892;48.838;9.330;2022-07-23T07:16:53;23.40;1.00
23439;DHT22;11892;48.838;9.330;2022-07-23T07:19:20;23.30;1.00
23439;DHT22;11892;48.838;9.330;2022-07-23T07:21:46;23.30;1.00
23439;DHT22;11892;48.838;9.330;2022-07-23T07:24:12;23.40;1.00
23439;DHT22;11892;48.838;9.330;2022-07-23T07:26:38;23.40;1.00
23439;DHT22;11892;48.838;9.330;2022-07-23T07:29:05;23.50;1.00
23439;DHT22;11892;48.838;9.330;2022-07-23T07:31:31;23.40;1.00
23439;DHT22;11892;48.838;9.330;2022-07-23T07:33:57;23.30;1.00
23439;DHT22;11892;48.838;9.330;2022-07-23T07:36:24;23.40;1.00
23439;DHT22;11892;48.838;9.330;2022-07-23T07:38:50;23.30;1.00
23439;DHT22;11892;48.838;9.330;2022-07-23T07:41:16;23.30;1.00
23439;DHT22;11892;48.838;9.330;2022-07-23T07:43:42;23.20;1.00
23439;DHT22;11892;48.838;9.330;2022-07-23T07:46:08;23.40;1.00
23439;DHT22;11892;48.838;9.330;2022-07-23T07:48:35;23.30;1.00
23439;DHT22;11892;48.838;9.330;2022-07-23T07:51:01;23.30;1.00
23439;DHT22;11892;48.838;9.330;2022-07-23T07:53:31;23.40;1.00
23439;DHT22;11892;48.838;9.330;2022-07-23T08:22:47;22.80;12.70
23439;DHT22;11892;48.838;9.330;2022-07-23T08:25:13;23.30;4.90
23439;DHT22;11892;48.838;9.330;2022-07-23T08:27:39;23.50;4.70
23439;DHT22;11892;48.838;9.330;2022-07-23T08:47:22;23.90;1.00
23439;DHT22;11892;48.838;9.330;2022-07-23T08:49:48;24.40;1.00
23439;DHT22;11892;48.838;9.330;2022-07-23T08:52:17;24.50;1.00
23439;DHT22;11892;48.838;9.330;2022-07-23T08:54:43;24.50;1.00
23439;DHT22;11892;48.838;9.330;2022-07-23T08:57:09;24.50;1.00
23439;DHT22;11892;48.838;9.330;2022-07-23T08:59:35;24.80;1.00
23439;DHT22;11892;48.838;9.330;2022-07-23T09:02:01;24.80;1.00
23439;DHT22;11892;48.838;9.330;2022-07-23T09:04:28;25.00;1.00
23439;DHT22;11892;48.838;9.330;2022-07-23T09:06:54;25.20;1.00
23439;DHT22;11892;48.838;9.330;2022-07-23T09:09:21;25.40;1.00
23439;DHT22;11892;48.838;9.330;2022-07-23T09:12:02;25.50;1.00
23439;DHT22;11892;48.838;9.330;2022-07-23T09:14:36;25.50;1.00
23439;DHT22;11892;48.838;9.330;2022-07-23T09:17:09;25.60;1.00
23439;DHT22;11892;48.838;9.330;2022-07-23T09:19:39;25.80;1.00
23439;DHT22;11892;48.838;9.330;2022-07-23T09:22:19;26.20;1.00
23439;DHT22;11892;48.838;9.330;2022-07-23T09:25:06;26.20;1.00
23439;DHT22;11892;48.838;9.330;2022-07-23T09:27:53;26.30;1.00
23439;DHT22;11892;48.838;9.330;2022-07-23T09:30:22;26.40;1.00
23439;DHT22;11892;48.838;9.330;2022-07-23T09:33:09;25.90;1.00
23439;DHT22;11892;48.838;9.330;2022-07-23T09:35:55;26.20;1.00
23439;DHT22;11892;48.838;9.330;2022-07-23T09:38:24;26.50;1.00
23439;DHT22;11892;48.838;9.330;2022-07-23T09:41:06;26.90;1.00
23439;DHT22;11892;48.838;9.330;2022-07-23T09:43:32;27.10;1.00
23439;DHT22;11892;48.838;9.330;2022-07-23T09:46:17;27.30;1.00
23439;DHT22;11892;48.838;9.330;2022-07-23T09:48:43;27.40;1.00
23439;DHT22;11892;48.838;9.330;2022-07-23T09:51:11;27.30;1.00
23439;DHT22;11892;48.838;9.330;2022-07-23T09:53:37;27.40;1.00
23439;DHT22;11892;48.838;9.330;2022-07-23T09:56:03;27.50;1.00
23439;DHT22;11892;48.838;9.330;2022-07-23T09:58:30;27.50;1.00
23439;DHT22;11892;48.838;9.330;2022-07-23T10:00:57;27.40;1.00
23439;DHT22;11892;48.838;9.330;2022-07-23T10:03:24;26.90;1.00
23439;DHT22;11892;48.838;9.330;2022-07-23T10:06:17;27.10;1.00
23439;DHT22;11892;48.838;9.330;2022-07-23T10:09:16;27.00;1.00
23439;DHT22;11892;48.838;9.330;2022-07-23T10:12:25;27.20;1.00
23439;DHT22;11892;48.838;9.330;2022-07-23T10:15:11;27.10;1.00
23439;DHT22;11892;48.838;9.330;2022-07-23T10:17:39;27.20;1.00
23439;DHT22;11892;48.838;9.330;2022-07-23T10:20:06;27.10;1.00
23439;DHT22;11892;48.838;9.330;2022-07-23T10:22:35;27.10;1.00
23439;DHT22;11892;48.838;9.330;2022-07-23T10:25:10;27.40;1.00
23439;DHT22;11892;48.838;9.330;2022-07-23T10:28:04;27.60;1.00
23439;DHT22;11892;48.838;9.330;2022-07-23T10:30:39;27.70;1.00
23439;DHT22;11892;48.838;9.330;2022-07-23T10:33:25;27.60;1.00
23439;DHT22;11892;48.838;9.330;2022-07-23T10:36:00;27.60;1.00
23439;DHT22;11892;48.838;9.330;2022-07-23T10:38:32;27.50;1.00
23439;DHT22;11892;48.838;9.330;2022-07-23T10:41:02;27.50;1.00
23439;DHT22;11892;48.838;9.330;2022-07-23T10:43:29;27.50;1.00
23439;DHT22;11892;48.838;9.330;2022-07-23T10:45:55;27.60;1.00
23439;DHT22;11892;48.838;9.330;2022-07-23T10:48:23;27.40;1.00
23439;DHT22;11892;48.838;9.330;2022-07-23T10:51:09;27.70;1.00
23439;DHT22;11892;48.838;9.330;2022-07-23T10:53:57;27.60;1.00
23439;DHT22;11892;48.838;9.330;2022-07-23T10:56:49;27.70;1.00
23439;DHT22;11892;48.838;9.330;2022-07-23T10:59:15;27.70;1.00
23439;DHT22;11892;48.838;9.330;2022-07-23T11:01:41;28.00;1.00
23439;DHT22;11892;48.838;9.330;2022-07-23T11:04:07;28.10;1.00
23439;DHT22;11892;48.838;9.330;2022-07-23T11:07:06;27.90;1.00
23439;DHT22;11892;48.838;9.330;2022-07-23T11:09:41;28.10;1.00
23439;DHT22;11892;48.838;9.330;2022-07-23T11:12:31;28.20;1.00
23439;DHT22;11892;48.838;9.330;2022-07-23T11:14:58;28.10;1.00
23439;DHT22;11892;48.838;9.330;2022-07-23T11:17:25;27.90;1.00
23439;DHT22;11892;48.838;9.330;2022-07-23T11:20:13;27.90;1.00
23439;DHT22;11892;48.838;9.330;2022-07-23T11:22:48;28.30;1.00
23439;DHT22;11892;48.838;9.330;2022-07-23T11:25:33;28.10;1.00
23439;DHT22;11892;48.838;9.330;2022-07-23T11:28:11;28.40;1.00
23439;DHT22;11892;48.838;9.330;2022-07-23T11:30:40;28.40;1.00
23439;DHT22;11892;48.838;9.330;2022-07-23T11:33:18;28.40;1.00
23439;DHT22;11892;48.838;9.330;2022-07-23T11:35:46;28.30;1.00
23439;DHT22;11892;48.838;9.330;2022-07-23T11:38:14;28.40;1.00
23439;DHT22;11892;48.838;9.330;2022-07-23T11:40:44;28.40;1.00
23439;DHT22;11892;48.838;9.330;2022-07-23T11:43:11;28.60;1.00
23439;DHT22;11892;48.838;9.330;2022-07-23T11:45:39;28.60;1.00
23439;DHT22;11892;48.838;9.330;2022-07-23T11:48:08;28.80;1.00
23439;DHT22;11892;48.838;9.330;2022-07-23T11:50:35;28.90;1.00
23439;DHT22;11892;48.838;9.330;2022-07-23T11:53:00;28.90;1.00
23439;DHT22;11892;48.838;9.330;2022-07-23T11:55:26;29.20;1.00
23439;DHT22;11892;48.838;9.330;2022-07-23T11:57:55;29.10;1.00
23439;DHT22;11892;48.838;9.330;2022-07-23T12:00:23;29.00;1.00
23439;DHT22;11892;48.838;9.330;2022-07-23T12:02:50;28.80;1.00
23439;DHT22;11892;48.838;9.330;2022-07-23T12:05:18;28.80;1.00
23439;DHT22;11892;48.838;9.330;2022-07-23T12:07:45;29.10;1.00
23439;DHT22;11892;48.838;9.330;2022-07-23T12:10:18;29.20;1.00
23439;DHT22;11892;48.838;9.330;2022-07-23T12:12:46;28.90;1.00
23439;DHT22;11892;48.838;9.330;2022-07-23T12:15:18;28.60;1.00
23439;DHT22;11892;48.838;9.330;2022-07-23T12:17:45;29.00;1.00
23439;DHT22;11892;48.838;9.330;2022-07-23T12:20:14;28.90;1.00
23439;DHT22;11892;48.838;9.330;2022-07-23T12:22:42;29.10;1.00
23439;DHT22;11892;48.838;9.330;2022-07-23T12:25:11;29.30;1.00
23439;DHT22;11892;48.838;9.330;2022-07-23T12:27:37;29.20;1.00
23439;DHT22;11892;48.838;9.330;2022-07-23T12:30:18;29.40;1.00
23439;DHT22;11892;48.838;9.330;2022-07-23T12:32:45;29.20;1.00
23439;DHT22;11892;48.838;9.330;2022-07-23T12:35:15;29.40;1.00
23439;DHT22;11892;48.838;9.330;2022-07-23T12:37:42;29.60;1.00
23439;DHT22;11892;48.838;9.330;2022-07-23T12:40:22;29.90;1.00
23439;DHT22;11892;48.838;9.330;2022-07-23T12:42:50;29.80;1.00
23439;DHT22;11892;48.838;9.330;2022-07-23T12:45:18;30.20;1.00
23439;DHT22;11892;48.838;9.330;2022-07-23T12:47:52;29.90;1.00
23439;DHT22;11892;48.838;9.330;2022-07-23T12:50:37;30.30;1.00
23439;DHT22;11892;48.838;9.330;2022-07-23T12:53:05;30.20;1.00
23439;DHT22;11892;48.838;9.330;2022-07-23T12:55:31;30.80;1.00
23439;DHT22;11892;48.838;9.330;2022-07-23T12:58:06;30.30;1.00
23439;DHT22;11892;48.838;9.330;2022-07-23T13:00:49;30.10;1.00
23439;DHT22;11892;48.838;9.330;2022-07-23T13:03:27;30.40;1.00
23439;DHT22;11892;48.838;9.330;2022-07-23T13:05:54;30.60;1.00
23439;DHT22;11892;48.838;9.330;2022-07-23T13:08:21;30.40;1.00
23439;DHT22;11892;48.838;9.330;2022-07-23T13:10:48;30.60;1.00
23439;DHT22;11892;48.838;9.330;2022-07-23T13:13:15;30.40;1.00
23439;DHT22;11892;48.838;9.330;2022-07-23T13:15:42;30.20;1.00
23439;DHT22;11892;48.838;9.330;2022-07-23T13:18:08;30.00;1.00
23439;DHT22;11892;48.838;9.330;2022-07-23T13:20:34;29.90;1.00
23439;DHT22;11892;48.838;9.330;2022-07-23T13:23:01;30.00;1.00
23439;DHT22;11892;48.838;9.330;2022-07-23T13:25:27;30.40;1.00
23439;DHT22;11892;48.838;9.330;2022-07-23T13:27:53;30.30;1.00
23439;DHT22;11892;48.838;9.330;2022-07-23T13:30:19;30.30;1.00
23439;DHT22;11892;48.838;9.330;2022-07-23T13:32:47;30.40;1.00
23439;DHT22;11892;48.838;9.330;2022-07-23T13:35:13;30.50;1.00
23439;DHT22;11892;48.838;9.330;2022-07-23T13:37:39;30.50;1.00
23439;DHT22;11892;48.838;9.330;2022-07-23T13:40:06;30.50;1.00
23439;DHT22;11892;48.838;9.330;2022-07-23T13:42:32;30.10;1.00
23439;DHT22;11892;48.838;9.330;2022-07-23T13:44:59;30.20;1.00
23439;DHT22;11892;48.838;9.330;2022-07-23T13:47:25;30.80;1.00
23439;DHT22;11892;48.838;9.330;2022-07-23T13:49:52;30.80;1.00
23439;DHT22;11892;48.838;9.330;2022-07-23T13:52:18;31.40;1.00
23439;DHT22;11892;48.838;9.330;2022-07-23T13:54:44;31.30;1.00
23439;DHT22;11892;48.838;9.330;2022-07-23T13:57:10;31.90;1.00
23439;DHT22;11892;48.838;9.330;2022-07-23T13:59:36;31.70;1.00
23439;DHT22;11892;48.838;9.330;2022-07-23T14:02:03;32.20;1.00
23439;DHT22;11892;48.838;9.330;2022-07-23T14:04:29;31.90;1.00
23439;DHT22;11892;48.838;9.330;2022-07-23T14:06:57;31.70;1.00
23439;DHT22;11892;48.838;9.330;2022-07-23T14:09:25;31.90;1.00
23439;DHT22;11892;48.838;9.330;2022-07-23T14:11:51;32.20;1.00
23439;DHT22;11892;48.838;9.330;2022-07-23T14:14:17;32.00;1.00
23439;DHT22;11892;48.838;9.330;2022-07-23T14:16:43;31.80;1.00
23439;DHT22;11892;48.838;9.330;2022-07-23T14:19:09;32.60;1.00
23439;DHT22;11892;48.838;9.330;2022-07-23T14:21:40;32.40;1.00
23439;DHT22;11892;48.838;9.330;2022-07-23T14:24:07;31.90;1.00
23439;DHT22;11892;48.838;9.330;2022-07-23T14:26:33;31.50;1.00
23439;DHT22;11892;48.838;9.330;2022-07-23T14:28:59;31.50;1.00
23439;DHT22;11892;48.838;9.330;2022-07-23T14:31:26;31.90;1.00
23439;DHT22;11892;48.838;9.330;2022-07-23T14:33:52;32.20;1.00
23439;DHT22;11892;48.838;9.330;2022-07-23T14:36:18;33.00;1.00
23439;DHT22;11892;48.838;9.330;2022-07-23T14:38:44;32.30;99.90
23439;DHT22;11892;48.838;9.330;2022-07-23T14:41:11;32.60;99.90
23439;DHT22;11892;48.838;9.330;2022-07-23T14:43:37;33.20;99.90
23439;DHT22;11892;48.838;9.330;2022-07-23T14:46:03;33.30;99.90
23439;DHT22;11892;48.838;9.330;2022-07-23T14:48:29;33.10;99.90
23439;DHT22;11892;48.838;9.330;2022-07-23T14:50:56;33.00;99.90
23439;DHT22;11892;48.838;9.330;2022-07-23T14:53:24;32.60;99.90
23439;DHT22;11892;48.838;9.330;2022-07-23T14:55:50;32.50;99.90
23439;DHT22;11892;48.838;9.330;2022-07-23T14:58:17;33.20;99.90
23439;DHT22;11892;48.838;9.330;2022-07-23T15:00:43;34.10;99.90
23439;DHT22;11892;48.838;9.330;2022-07-23T15:03:09;33.20;99.90
23439;DHT22;11892;48.838;9.330;2022-07-23T15:05:35;33.50;99.90
23439;DHT22;11892;48.838;9.330;2022-07-23T15:08:01;33.30;99.90
23439;DHT22;11892;48.838;9.330;2022-07-23T15:10:27;34.00;99.90
23439;DHT22;11892;48.838;9.330;2022-07-23T15:12:53;33.50;99.90
23439;DHT22;11892;48.838;9.330;2022-07-23T15:15:21;33.70;99.90
23439;DHT22;11892;48.838;9.330;2022-07-23T15:17:47;33.80;98.90
23439;DHT22;11892;48.838;9.330;2022-07-23T15:20:13;33.70;95.50
23439;DHT22;11892;48.838;9.330;2022-07-23T15:22:39;33.80;44.50
23439;DHT22;11892;48.838;9.330;2022-07-23T15:25:06;34.20;48.80
23439;DHT22;11892;48.838;9.330;2022-07-23T15:27:35;33.50;1.00
23439;DHT22;11892;48.838;9.330;2022-07-23T15:30:01;33.20;1.00
23439;DHT22;11892;48.838;9.330;2022-07-23T15:32:28;33.20;21.30
23439;DHT22;11892;48.838;9.330;2022-07-23T15:34:54;33.40;22.40
23439;DHT22;11892;48.838;9.330;2022-07-23T15:37:20;33.50;8.90
23439;DHT22;11892;48.838;9.330;2022-07-23T15:39:46;33.30;1.00
23439;DHT22;11892;48.838;9.330;2022-07-23T15:42:12;33.50;1.00
23439;DHT22;11892;48.838;9.330;2022-07-23T15:44:38;32.80;1.00
23439;DHT22;11892;48.838;9.330;2022-07-23T15:47:04;32.40;1.00
23439;DHT22;11892;48.838;9.330;2022-07-23T15:49:31;31.90;1.00
23439;DHT22;11892;48.838;9.330;2022-07-23T15:51:57;31.80;1.20
23439;DHT22;11892;48.838;9.330;2022-07-23T15:54:23;32.00;18.60
23439;DHT22;11892;48.838;9.330;2022-07-23T15:56:51;32.30;17.90
23439;DHT22;11892;48.838;9.330;2022-07-23T15:59:17;32.00;31.00
23439;DHT22;11892;48.838;9.330;2022-07-23T16:01:43;32.70;25.90
23439;DHT22;11892;48.838;9.330;2022-07-23T16:04:09;33.60;31.40
23439;DHT22;11892;48.838;9.330;2022-07-23T16:06:36;33.90;1.00
23439;DHT22;11892;48.838;9.330;2022-07-23T16:09:03;33.80;1.00
23439;DHT22;11892;48.838;9.330;2022-07-23T16:11:29;34.30;1.00
23439;DHT22;11892;48.838;9.330;2022-07-23T16:13:55;34.40;1.00
23439;DHT22;11892;48.838;9.330;2022-07-23T16:16:21;34.50;1.00
23439;DHT22;11892;48.838;9.330;2022-07-23T16:18:47;34.40;1.00
23439;DHT22;11892;48.838;9.330;2022-07-23T16:21:16;34.50;1.00
23439;DHT22;11892;48.838;9.330;2022-07-23T16:23:44;33.90;1.00
23439;DHT22;11892;48.838;9.330;2022-07-23T16:26:10;33.20;1.00
23439;DHT22;11892;48.838;9.330;2022-07-23T16:28:36;33.60;1.00
23439;DHT22;11892;48.838;9.330;2022-07-23T16:31:03;32.80;1.00
23439;DHT22;11892;48.838;9.330;2022-07-23T16:33:29;32.10;1.00
23439;DHT22;11892;48.838;9.330;2022-07-23T16:35:54;31.50;1.00
23439;DHT22;11892;48.838;9.330;2022-07-23T16:38:20;31.40;13.50